Chepstow, United Kingdom
Current Conditions -  °F | °C
As of 7:50 PM on Wednesday 26 Nov 2014 (Local Time) from EGGD Reporting Station
Moderate Fog Moderate Fog  
Wind Chill: 43°   Ceiling: 200
Heat Index: 43°   Visibility: 0.28mi
Dew Point: 43°   Wind: 3mph
Humidity: 100%   Direction: 10°N
Pressure: 29.8"   Gusts: NA
Location:  51.64°N, 2.68°W
Report Text: EGGD 261950Z 01003KT 0450 R27/0700 FG SCT001 BKN002 06/06 Q1009
Loading
Personal Weather Stations






























Interactive Weather Map New forecast layout! Learn more

10-Day Weather Forecast

Advertisements
Track Severe Weather on mobile